sensor_id;sensor_type;location;lat;lon;timestamp;temperature;humidity
45207;DHT22;30950;53.086;21.576;2023-02-01T00:00:01;2.40;99.90
45207;DHT22;30950;53.086;21.576;2023-02-01T00:02:31;2.40;99.90
45207;DHT22;30950;53.086;21.576;2023-02-01T00:04:58;2.40;99.90
45207;DHT22;30950;53.086;21.576;2023-02-01T00:07:25;2.40;99.90
45207;DHT22;30950;53.086;21.576;2023-02-01T00:09:53;2.50;99.90
45207;DHT22;30950;53.086;21.576;2023-02-01T00:12:20;2.50;99.90
45207;DHT22;30950;53.086;21.576;2023-02-01T00:14:47;2.60;99.90
45207;DHT22;30950;53.086;21.576;2023-02-01T00:17:15;2.60;99.90
45207;DHT22;30950;53.086;21.576;2023-02-01T00:19:42;2.60;99.90
45207;DHT22;30950;53.086;21.576;2023-02-01T00:22:09;2.70;99.90
45207;DHT22;30950;53.086;21.576;2023-02-01T00:24:37;2.60;99.90
45207;DHT22;30950;53.086;21.576;2023-02-01T00:27:04;2.70;99.90
45207;DHT22;30950;53.086;21.576;2023-02-01T00:29:31;2.90;99.90
45207;DHT22;30950;53.086;21.576;2023-02-01T00:31:58;2.80;99.90
45207;DHT22;30950;53.086;21.576;2023-02-01T00:34:26;2.80;99.90
45207;DHT22;30950;53.086;21.576;2023-02-01T00:36:53;2.80;99.90
45207;DHT22;30950;53.086;21.576;2023-02-01T00:39:22;2.80;99.90
45207;DHT22;30950;53.086;21.576;2023-02-01T00:41:49;2.80;99.90
45207;DHT22;30950;53.086;21.576;2023-02-01T00:44:16;2.80;99.90
45207;DHT22;30950;53.086;21.576;2023-02-01T00:46:44;2.80;99.90
45207;DHT22;30950;53.086;21.576;2023-02-01T00:49:11;2.90;99.90
45207;DHT22;30950;53.086;21.576;2023-02-01T00:51:39;2.90;99.90
45207;DHT22;30950;53.086;21.576;2023-02-01T00:54:06;2.90;99.90
45207;DHT22;30950;53.086;21.576;2023-02-01T00:56:33;2.90;99.90
45207;DHT22;30950;53.086;21.576;2023-02-01T00:59:00;3.00;99.90
45207;DHT22;30950;53.086;21.576;2023-02-01T01:01:28;3.00;99.90
45207;DHT22;30950;53.086;21.576;2023-02-01T01:03:57;2.90;99.90
45207;DHT22;30950;53.086;21.576;2023-02-01T01:06:31;3.00;99.90
45207;DHT22;30950;53.086;21.576;2023-02-01T01:09:00;3.00;99.90
45207;DHT22;30950;53.086;21.576;2023-02-01T01:11:32;3.00;99.90
45207;DHT22;30950;53.086;21.576;2023-02-01T01:14:00;3.00;99.90
45207;DHT22;30950;53.086;21.576;2023-02-01T01:16:29;3.10;99.90
45207;DHT22;30950;53.086;21.576;2023-02-01T01:18:57;3.00;99.90
45207;DHT22;30950;53.086;21.576;2023-02-01T01:21:25;3.00;99.90
45207;DHT22;30950;53.086;21.576;2023-02-01T01:23:52;3.00;99.90
45207;DHT22;30950;53.086;21.576;2023-02-01T01:26:23;3.10;99.90
45207;DHT22;30950;53.086;21.576;2023-02-01T01:28:51;3.10;99.90
45207;DHT22;30950;53.086;21.576;2023-02-01T01:31:20;3.00;99.90
45207;DHT22;30950;53.086;21.576;2023-02-01T01:33:50;3.00;99.90
45207;DHT22;30950;53.086;21.576;2023-02-01T01:36:18;3.00;99.90
45207;DHT22;30950;53.086;21.576;2023-02-01T01:38:46;3.00;99.90
45207;DHT22;30950;53.086;21.576;2023-02-01T01:41:16;3.00;99.90
45207;DHT22;30950;53.086;21.576;2023-02-01T01:43:59;3.00;99.90
45207;DHT22;30950;53.086;21.576;2023-02-01T01:46:33;3.00;99.90
45207;DHT22;30950;53.086;21.576;2023-02-01T01:49:16;3.00;99.90
45207;DHT22;30950;53.086;21.576;2023-02-01T01:51:48;3.00;99.90
45207;DHT22;30950;53.086;21.576;2023-02-01T01:54:25;3.00;99.90
45207;DHT22;30950;53.086;21.576;2023-02-01T01:56:58;2.90;99.90
45207;DHT22;30950;53.086;21.576;2023-02-01T01:59:26;2.90;99.90
45207;DHT22;30950;53.086;21.576;2023-02-01T02:01:55;2.90;99.90
45207;DHT22;30950;53.086;21.576;2023-02-01T02:04:23;2.90;99.90
45207;DHT22;30950;53.086;21.576;2023-02-01T02:07:25;2.90;99.90
45207;DHT22;30950;53.086;21.576;2023-02-01T02:09:54;2.90;99.90
45207;DHT22;30950;53.086;21.576;2023-02-01T02:12:28;2.90;99.90
45207;DHT22;30950;53.086;21.576;2023-02-01T02:14:55;2.90;99.90
45207;DHT22;30950;53.086;21.576;2023-02-01T02:17:48;2.90;99.90
45207;DHT22;30950;53.086;21.576;2023-02-01T02:43:18;2.90;99.90
45207;DHT22;30950;53.086;21.576;2023-02-01T02:46:21;2.90;99.90
45207;DHT22;30950;53.086;21.576;2023-02-01T02:49:12;2.90;99.90
45207;DHT22;30950;53.086;21.576;2023-02-01T02:52:05;2.90;99.90
45207;DHT22;30950;53.086;21.576;2023-02-01T02:54:54;2.90;99.90
45207;DHT22;30950;53.086;21.576;2023-02-01T02:57:30;2.90;99.90
45207;DHT22;30950;53.086;21.576;2023-02-01T03:00:21;2.90;99.90
45207;DHT22;30950;53.086;21.576;2023-02-01T03:03:08;2.90;99.90
45207;DHT22;30950;53.086;21.576;2023-02-01T03:05:54;2.90;99.90
45207;DHT22;30950;53.086;21.576;2023-02-01T03:08:30;3.00;99.90
45207;DHT22;30950;53.086;21.576;2023-02-01T03:11:06;3.00;99.90
45207;DHT22;30950;53.086;21.576;2023-02-01T03:18:44;3.00;99.90
45207;DHT22;30950;53.086;21.576;2023-02-01T03:21:17;3.00;99.90
45207;DHT22;30950;53.086;21.576;2023-02-01T03:23:48;3.10;99.90
45207;DHT22;30950;53.086;21.576;2023-02-01T03:26:17;3.00;99.90
45207;DHT22;30950;53.086;21.576;2023-02-01T03:29:00;3.00;99.90
45207;DHT22;30950;53.086;21.576;2023-02-01T03:31:31;3.00;99.90
45207;DHT22;30950;53.086;21.576;2023-02-01T03:33:59;3.00;99.90
45207;DHT22;30950;53.086;21.576;2023-02-01T03:36:29;3.00;99.90
45207;DHT22;30950;53.086;21.576;2023-02-01T03:39:08;3.00;99.90
45207;DHT22;30950;53.086;21.576;2023-02-01T03:41:41;3.00;99.90
45207;DHT22;30950;53.086;21.576;2023-02-01T03:46:58;3.00;99.90
45207;DHT22;30950;53.086;21.576;2023-02-01T03:49:39;3.00;99.90
45207;DHT22;30950;53.086;21.576;2023-02-01T03:52:15;3.10;99.90
45207;DHT22;30950;53.086;21.576;2023-02-01T03:54:45;3.00;99.90
45207;DHT22;30950;53.086;21.576;2023-02-01T03:57:16;3.10;99.90
45207;DHT22;30950;53.086;21.576;2023-02-01T03:59:47;3.10;99.90
45207;DHT22;30950;53.086;21.576;2023-02-01T04:02:15;3.10;99.90
45207;DHT22;30950;53.086;21.576;2023-02-01T04:04:43;3.10;99.90
45207;DHT22;30950;53.086;21.576;2023-02-01T04:07:13;3.10;99.90
45207;DHT22;30950;53.086;21.576;2023-02-01T04:09:41;3.20;99.90
45207;DHT22;30950;53.086;21.576;2023-02-01T04:12:08;3.20;99.90
45207;DHT22;30950;53.086;21.576;2023-02-01T04:14:36;3.20;99.90
45207;DHT22;30950;53.086;21.576;2023-02-01T04:17:03;3.20;99.90
45207;DHT22;30950;53.086;21.576;2023-02-01T04:19:31;3.20;99.90
45207;DHT22;30950;53.086;21.576;2023-02-01T04:21:58;3.20;99.90
45207;DHT22;30950;53.086;21.576;2023-02-01T04:24:25;3.20;99.90
45207;DHT22;30950;53.086;21.576;2023-02-01T04:26:53;3.20;99.90
45207;DHT22;30950;53.086;21.576;2023-02-01T04:29:20;3.30;99.90
45207;DHT22;30950;53.086;21.576;2023-02-01T04:31:48;3.30;99.90
45207;DHT22;30950;53.086;21.576;2023-02-01T04:34:16;3.30;99.90
45207;DHT22;30950;53.086;21.576;2023-02-01T04:36:44;3.30;99.90
45207;DHT22;30950;53.086;21.576;2023-02-01T04:39:13;3.30;99.90
45207;DHT22;30950;53.086;21.576;2023-02-01T04:41:40;3.30;99.90
45207;DHT22;30950;53.086;21.576;2023-02-01T04:44:14;3.30;99.90
45207;DHT22;30950;53.086;21.576;2023-02-01T04:46:43;3.30;99.90
45207;DHT22;30950;53.086;21.576;2023-02-01T04:49:11;3.30;99.90
45207;DHT22;30950;53.086;21.576;2023-02-01T04:51:40;3.40;99.90
45207;DHT22;30950;53.086;21.576;2023-02-01T04:54:08;3.40;99.90
45207;DHT22;30950;53.086;21.576;2023-02-01T04:56:38;3.30;99.90
45207;DHT22;30950;53.086;21.576;2023-02-01T04:59:06;3.30;99.90
45207;DHT22;30950;53.086;21.576;2023-02-01T05:01:33;3.30;99.90
45207;DHT22;30950;53.086;21.576;2023-02-01T05:04:01;3.40;99.90
45207;DHT22;30950;53.086;21.576;2023-02-01T05:06:28;3.30;99.90
45207;DHT22;30950;53.086;21.576;2023-02-01T05:08:56;3.40;99.90
45207;DHT22;30950;53.086;21.576;2023-02-01T05:11:23;3.30;99.90
45207;DHT22;30950;53.086;21.576;2023-02-01T05:14:10;3.40;99.90
45207;DHT22;30950;53.086;21.576;2023-02-01T05:16:37;3.40;99.90
45207;DHT22;30950;53.086;21.576;2023-02-01T05:19:04;3.40;99.90
45207;DHT22;30950;53.086;21.576;2023-02-01T05:21:31;3.40;99.90
45207;DHT22;30950;53.086;21.576;2023-02-01T05:23:59;3.40;99.90
45207;DHT22;30950;53.086;21.576;2023-02-01T05:26:48;3.40;99.90
45207;DHT22;30950;53.086;21.576;2023-02-01T05:29:17;3.50;99.90
45207;DHT22;30950;53.086;21.576;2023-02-01T05:31:45;3.50;99.90
45207;DHT22;30950;53.086;21.576;2023-02-01T05:34:15;3.50;99.90
45207;DHT22;30950;53.086;21.576;2023-02-01T05:36:42;3.50;99.90
45207;DHT22;30950;53.086;21.576;2023-02-01T05:39:10;3.60;99.90
45207;DHT22;30950;53.086;21.576;2023-02-01T05:41:37;3.50;99.90
45207;DHT22;30950;53.086;21.576;2023-02-01T05:44:05;3.60;99.90
45207;DHT22;30950;53.086;21.576;2023-02-01T05:46:35;3.60;99.90
45207;DHT22;30950;53.086;21.576;2023-02-01T05:49:04;3.60;99.90
45207;DHT22;30950;53.086;21.576;2023-02-01T05:51:31;3.60;99.90
45207;DHT22;30950;53.086;21.576;2023-02-01T05:53:58;3.60;99.90
45207;DHT22;30950;53.086;21.576;2023-02-01T05:56:26;3.60;99.90
45207;DHT22;30950;53.086;21.576;2023-02-01T05:58:53;3.60;99.90
45207;DHT22;30950;53.086;21.576;2023-02-01T06:01:20;3.60;99.90
45207;DHT22;30950;53.086;21.576;2023-02-01T06:03:48;3.60;99.90
45207;DHT22;30950;53.086;21.576;2023-02-01T06:06:15;3.60;99.90
45207;DHT22;30950;53.086;21.576;2023-02-01T06:08:43;3.60;99.90
45207;DHT22;30950;53.086;21.576;2023-02-01T06:11:10;3.70;99.90
45207;DHT22;30950;53.086;21.576;2023-02-01T06:13:46;3.60;99.90
45207;DHT22;30950;53.086;21.576;2023-02-01T06:16:13;3.60;99.90
45207;DHT22;30950;53.086;21.576;2023-02-01T06:18:42;3.60;99.90
45207;DHT22;30950;53.086;21.576;2023-02-01T06:21:09;3.60;99.90
45207;DHT22;30950;53.086;21.576;2023-02-01T06:23:37;3.60;99.90
45207;DHT22;30950;53.086;21.576;2023-02-01T06:26:06;3.60;99.90
45207;DHT22;30950;53.086;21.576;2023-02-01T06:28:35;3.60;99.90
45207;DHT22;30950;53.086;21.576;2023-02-01T06:31:06;3.60;99.90
45207;DHT22;30950;53.086;21.576;2023-02-01T06:33:35;3.60;99.90
45207;DHT22;30950;53.086;21.576;2023-02-01T06:36:05;3.60;99.90
45207;DHT22;30950;53.086;21.576;2023-02-01T06:38:34;3.60;99.90
45207;DHT22;30950;53.086;21.576;2023-02-01T06:41:02;3.60;99.90
45207;DHT22;30950;53.086;21.576;2023-02-01T06:43:31;3.60;99.90
45207;DHT22;30950;53.086;21.576;2023-02-01T06:46:01;3.50;99.90
45207;DHT22;30950;53.086;21.576;2023-02-01T06:48:29;3.60;99.90
45207;DHT22;30950;53.086;21.576;2023-02-01T06:50:57;3.60;99.90
45207;DHT22;30950;53.086;21.576;2023-02-01T06:53:24;3.60;99.90
45207;DHT22;30950;53.086;21.576;2023-02-01T06:55:54;3.60;99.90
45207;DHT22;30950;53.086;21.576;2023-02-01T06:58:21;3.60;99.90
45207;DHT22;30950;53.086;21.576;2023-02-01T07:00:49;3.70;99.90
45207;DHT22;30950;53.086;21.576;2023-02-01T07:03:17;3.70;99.90
45207;DHT22;30950;53.086;21.576;2023-02-01T07:05:44;3.70;99.90
45207;DHT22;30950;53.086;21.576;2023-02-01T07:08:12;3.70;99.90
45207;DHT22;30950;53.086;21.576;2023-02-01T07:10:40;3.70;99.90
45207;DHT22;30950;53.086;21.576;2023-02-01T07:13:07;3.70;99.90
45207;DHT22;30950;53.086;21.576;2023-02-01T07:15:35;3.70;99.90
45207;DHT22;30950;53.086;21.576;2023-02-01T07:18:02;3.80;99.90
45207;DHT22;30950;53.086;21.576;2023-02-01T07:20:29;3.80;99.90
45207;DHT22;30950;53.086;21.576;2023-02-01T07:22:57;3.80;99.90
45207;DHT22;30950;53.086;21.576;2023-02-01T07:25:24;3.80;99.90
45207;DHT22;30950;53.086;21.576;2023-02-01T07:27:52;3.80;99.90
45207;DHT22;30950;53.086;21.576;2023-02-01T07:30:19;3.80;99.90
45207;DHT22;30950;53.086;21.576;2023-02-01T07:32:47;3.80;99.90
45207;DHT22;30950;53.086;21.576;2023-02-01T07:35:15;3.80;99.90
45207;DHT22;30950;53.086;21.576;2023-02-01T07:37:42;3.90;99.90
45207;DHT22;30950;53.086;21.576;2023-02-01T07:40:10;3.90;99.90
45207;DHT22;30950;53.086;21.576;2023-02-01T07:42:38;3.90;99.90
45207;DHT22;30950;53.086;21.576;2023-02-01T07:45:06;3.90;99.90
45207;DHT22;30950;53.086;21.576;2023-02-01T07:47:47;3.90;99.90
45207;DHT22;30950;53.086;21.576;2023-02-01T07:50:15;3.90;99.90
45207;DHT22;30950;53.086;21.576;2023-02-01T07:52:42;4.00;99.90
45207;DHT22;30950;53.086;21.576;2023-02-01T07:55:10;4.00;99.90
45207;DHT22;30950;53.086;21.576;2023-02-01T07:57:37;4.00;99.90
45207;DHT22;30950;53.086;21.576;2023-02-01T08:00:05;4.00;99.90
45207;DHT22;30950;53.086;21.576;2023-02-01T08:02:51;4.00;99.90
45207;DHT22;30950;53.086;21.576;2023-02-01T08:05:19;4.00;99.90
45207;DHT22;30950;53.086;21.576;2023-02-01T08:07:51;4.00;99.90
45207;DHT22;30950;53.086;21.576;2023-02-01T08:10:19;4.00;99.90
45207;DHT22;30950;53.086;21.576;2023-02-01T08:12:47;4.00;99.90
45207;DHT22;30950;53.086;21.576;2023-02-01T08:15:16;5.50;99.90
45207;DHT22;30950;53.086;21.576;2023-02-01T08:17:50;4.00;99.90
45207;DHT22;30950;53.086;21.576;2023-02-01T08:20:18;4.00;99.90
45207;DHT22;30950;53.086;21.576;2023-02-01T08:22:46;4.00;99.90
45207;DHT22;30950;53.086;21.576;2023-02-01T08:25:13;4.10;99.90
45207;DHT22;30950;53.086;21.576;2023-02-01T08:27:41;4.00;99.90
45207;DHT22;30950;53.086;21.576;2023-02-01T08:30:09;4.00;99.90
45207;DHT22;30950;53.086;21.576;2023-02-01T08:32:37;4.10;99.90
45207;DHT22;30950;53.086;21.576;2023-02-01T08:35:05;4.10;99.90
45207;DHT22;30950;53.086;21.576;2023-02-01T08:37:32;4.00;99.90
45207;DHT22;30950;53.086;21.576;2023-02-01T08:40:00;3.90;99.90
45207;DHT22;30950;53.086;21.576;2023-02-01T08:42:27;3.80;99.90
45207;DHT22;30950;53.086;21.576;2023-02-01T08:45:13;3.60;99.90
45207;DHT22;30950;53.086;21.576;2023-02-01T08:47:40;3.60;99.90
45207;DHT22;30950;53.086;21.576;2023-02-01T08:50:09;3.40;99.90
45207;DHT22;30950;53.086;21.576;2023-02-01T08:52:36;3.40;99.90
45207;DHT22;30950;53.086;21.576;2023-02-01T08:55:05;3.20;99.90
45207;DHT22;30950;53.086;21.576;2023-02-01T08:57:34;3.20;99.90
45207;DHT22;30950;53.086;21.576;2023-02-01T09:00:03;3.10;99.90
45207;DHT22;30950;53.086;21.576;2023-02-01T09:02:31;3.10;99.90
45207;DHT22;30950;53.086;21.576;2023-02-01T09:04:59;3.10;99.90
45207;DHT22;30950;53.086;21.576;2023-02-01T09:07:29;3.10;99.90
45207;DHT22;30950;53.086;21.576;2023-02-01T09:09:59;3.10;99.90
45207;DHT22;30950;53.086;21.576;2023-02-01T09:12:31;3.20;99.90
45207;DHT22;30950;53.086;21.576;2023-02-01T09:14:59;3.20;99.90
45207;DHT22;30950;53.086;21.576;2023-02-01T09:17:27;3.20;99.90
45207;DHT22;30950;53.086;21.576;2023-02-01T09:19:59;3.20;99.90
45207;DHT22;30950;53.086;21.576;2023-02-01T09:22:27;3.30;99.90
45207;DHT22;30950;53.086;21.576;2023-02-01T09:24:54;3.30;99.90
45207;DHT22;30950;53.086;21.576;2023-02-01T09:27:22;3.30;99.90
45207;DHT22;30950;53.086;21.576;2023-02-01T09:29:49;3.40;99.90
45207;DHT22;30950;53.086;21.576;2023-02-01T09:32:23;3.40;99.90
45207;DHT22;30950;53.086;21.576;2023-02-01T09:34:52;3.40;99.90
45207;DHT22;30950;53.086;21.576;2023-02-01T09:37:20;3.50;99.90
45207;DHT22;30950;53.086;21.576;2023-02-01T09:39:47;3.50;99.90
45207;DHT22;30950;53.086;21.576;2023-02-01T09:42:53;3.50;99.90
45207;DHT22;30950;53.086;21.576;2023-02-01T09:48:19;3.60;99.90
45207;DHT22;30950;53.086;21.576;2023-02-01T09:50:52;3.60;99.90
45207;DHT22;30950;53.086;21.576;2023-02-01T09:53:34;3.60;99.90
45207;DHT22;30950;53.086;21.576;2023-02-01T09:56:14;3.70;99.90
45207;DHT22;30950;53.086;21.576;2023-02-01T09:58:49;3.70;99.90
45207;DHT22;30950;53.086;21.576;2023-02-01T10:01:21;3.80;99.90
45207;DHT22;30950;53.086;21.576;2023-02-01T10:03:59;3.80;99.90
45207;DHT22;30950;53.086;21.576;2023-02-01T10:17:49;4.10;99.90
45207;DHT22;30950;53.086;21.576;2023-02-01T10:26:19;4.20;99.90
45207;DHT22;30950;53.086;21.576;2023-02-01T10:28:53;4.20;99.90
45207;DHT22;30950;53.086;21.576;2023-02-01T10:31:26;4.20;99.90
45207;DHT22;30950;53.086;21.576;2023-02-01T10:34:01;4.10;99.90
45207;DHT22;30950;53.086;21.576;2023-02-01T10:36:36;4.10;99.90
45207;DHT22;30950;53.086;21.576;2023-02-01T10:39:12;4.00;99.90
45207;DHT22;30950;53.086;21.576;2023-02-01T10:41:40;4.00;99.90
45207;DHT22;30950;53.086;21.576;2023-02-01T10:44:16;4.00;99.90
45207;DHT22;30950;53.086;21.576;2023-02-01T10:46:44;4.00;99.90
45207;DHT22;30950;53.086;21.576;2023-02-01T10:49:23;4.00;99.90
45207;DHT22;30950;53.086;21.576;2023-02-01T10:52:09;4.00;99.90
45207;DHT22;30950;53.086;21.576;2023-02-01T10:54:39;4.10;99.90
45207;DHT22;30950;53.086;21.576;2023-02-01T10:57:08;4.10;99.90
45207;DHT22;30950;53.086;21.576;2023-02-01T10:59:36;4.20;99.90
45207;DHT22;30950;53.086;21.576;2023-02-01T11:02:20;4.30;99.90
45207;DHT22;30950;53.086;21.576;2023-02-01T11:05:03;4.30;99.90
45207;DHT22;30950;53.086;21.576;2023-02-01T11:07:32;4.40;99.90
45207;DHT22;30950;53.086;21.576;2023-02-01T11:10:00;4.40;99.90
45207;DHT22;30950;53.086;21.576;2023-02-01T11:12:32;4.40;99.90
45207;DHT22;30950;53.086;21.576;2023-02-01T11:15:20;4.40;99.90
45207;DHT22;30950;53.086;21.576;2023-02-01T11:17:50;4.40;99.90
45207;DHT22;30950;53.086;21.576;2023-02-01T11:20:44;4.30;99.90
45207;DHT22;30950;53.086;21.576;2023-02-01T11:23:18;4.30;99.90
45207;DHT22;30950;53.086;21.576;2023-02-01T11:25:55;4.20;99.90
45207;DHT22;30950;53.086;21.576;2023-02-01T11:28:33;4.20;99.90
45207;DHT22;30950;53.086;21.576;2023-02-01T11:31:05;4.20;99.90
45207;DHT22;30950;53.086;21.576;2023-02-01T11:33:37;4.30;99.90
45207;DHT22;30950;53.086;21.576;2023-02-01T11:36:14;4.30;99.90
45207;DHT22;30950;53.086;21.576;2023-02-01T11:39:28;4.30;99.90
45207;DHT22;30950;53.086;21.576;2023-02-01T11:42:13;4.40;99.90
45207;DHT22;30950;53.086;21.576;2023-02-01T11:44:45;4.50;99.90
45207;DHT22;30950;53.086;21.576;2023-02-01T11:49:49;4.60;99.90
45207;DHT22;30950;53.086;21.576;2023-02-01T12:03:38;4.80;99.90
45207;DHT22;30950;53.086;21.576;2023-02-01T12:06:20;4.90;99.90
45207;DHT22;30950;53.086;21.576;2023-02-01T12:34:22;5.20;99.90
45207;DHT22;30950;53.086;21.576;2023-02-01T12:37:15;5.30;99.90
45207;DHT22;30950;53.086;21.576;2023-02-01T12:42:44;5.40;99.90
45207;DHT22;30950;53.086;21.576;2023-02-01T12:45:26;5.40;99.90
45207;DHT22;30950;53.086;21.576;2023-02-01T12:50:46;5.50;99.90
45207;DHT22;30950;53.086;21.576;2023-02-01T12:53:28;5.50;99.90
45207;DHT22;30950;53.086;21.576;2023-02-01T12:56:05;5.50;99.90
45207;DHT22;30950;53.086;21.576;2023-02-01T12:58:44;5.50;99.90
45207;DHT22;30950;53.086;21.576;2023-02-01T13:06:53;5.50;99.90
45207;DHT22;30950;53.086;21.576;2023-02-01T13:09:43;5.50;99.90
45207;DHT22;30950;53.086;21.576;2023-02-01T13:12:16;5.50;99.90
45207;DHT22;30950;53.086;21.576;2023-02-01T13:17:33;5.50;99.90
45207;DHT22;30950;53.086;21.576;2023-02-01T13:22:38;5.60;99.90
45207;DHT22;30950;53.086;21.576;2023-02-01T13:25:13;5.60;99.90
45207;DHT22;30950;53.086;21.576;2023-02-01T13:27:43;5.50;99.90
45207;DHT22;30950;53.086;21.576;2023-02-01T13:30:41;5.60;99.90
45207;DHT22;30950;53.086;21.576;2023-02-01T13:36:22;5.60;99.90
45207;DHT22;30950;53.086;21.576;2023-02-01T13:42:02;5.60;99.90
45207;DHT22;30950;53.086;21.576;2023-02-01T13:45:00;5.50;99.90
45207;DHT22;30950;53.086;21.576;2023-02-01T13:47:33;5.40;99.90
45207;DHT22;30950;53.086;21.576;2023-02-01T13:50:26;5.40;99.90
45207;DHT22;30950;53.086;21.576;2023-02-01T13:53:00;5.40;99.90
45207;DHT22;30950;53.086;21.576;2023-02-01T13:55:35;5.40;99.90
45207;DHT22;30950;53.086;21.576;2023-02-01T13:58:20;5.30;99.90
45207;DHT22;30950;53.086;21.576;2023-02-01T14:00:49;5.30;99.90
45207;DHT22;30950;53.086;21.576;2023-02-01T14:03:23;5.30;99.90
45207;DHT22;30950;53.086;21.576;2023-02-01T14:06:36;5.30;99.90
45207;DHT22;30950;53.086;21.576;2023-02-01T14:11:55;5.30;99.90
45207;DHT22;30950;53.086;21.576;2023-02-01T14:21:50;5.20;99.90
45207;DHT22;30950;53.086;21.576;2023-02-01T14:24:29;5.20;99.90
45207;DHT22;30950;53.086;21.576;2023-02-01T14:29:50;5.20;99.90
45207;DHT22;30950;53.086;21.576;2023-02-01T14:34:56;5.20;99.90
45207;DHT22;30950;53.086;21.576;2023-02-01T14:37:29;5.20;99.90
45207;DHT22;30950;53.086;21.576;2023-02-01T14:40:06;5.20;99.90
45207;DHT22;30950;53.086;21.576;2023-02-01T14:50:34;5.20;99.90
45207;DHT22;30950;53.086;21.576;2023-02-01T15:00:53;5.20;99.90
45207;DHT22;30950;53.086;21.576;2023-02-01T15:06:00;5.20;99.90
45207;DHT22;30950;53.086;21.576;2023-02-01T15:08:31;5.20;99.90
45207;DHT22;30950;53.086;21.576;2023-02-01T15:11:02;5.20;99.90
45207;DHT22;30950;53.086;21.576;2023-02-01T15:13:33;5.20;99.90
45207;DHT22;30950;53.086;21.576;2023-02-01T15:16:12;5.20;99.90
45207;DHT22;30950;53.086;21.576;2023-02-01T15:18:41;5.20;99.90
45207;DHT22;30950;53.086;21.576;2023-02-01T15:21:20;5.20;99.90
45207;DHT22;30950;53.086;21.576;2023-02-01T15:24:14;5.20;99.90
45207;DHT22;30950;53.086;21.576;2023-02-01T15:26:41;5.20;99.90
45207;DHT22;30950;53.086;21.576;2023-02-01T15:29:13;5.20;99.90
45207;DHT22;30950;53.086;21.576;2023-02-01T15:31:49;5.20;99.90
45207;DHT22;30950;53.086;21.576;2023-02-01T15:34:18;5.20;99.90
45207;DHT22;30950;53.086;21.576;2023-02-01T15:36:47;5.10;99.90
45207;DHT22;30950;53.086;21.576;2023-02-01T15:39:29;5.10;99.90
45207;DHT22;30950;53.086;21.576;2023-02-01T15:42:08;5.10;99.90
45207;DHT22;30950;53.086;21.576;2023-02-01T15:44:41;5.10;99.90
45207;DHT22;30950;53.086;21.576;2023-02-01T15:47:24;5.10;99.90
45207;DHT22;30950;53.086;21.576;2023-02-01T15:49:54;5.10;99.90
45207;DHT22;30950;53.086;21.576;2023-02-01T15:52:26;5.00;99.90
45207;DHT22;30950;53.086;21.576;2023-02-01T15:55:00;5.00;99.90
45207;DHT22;30950;53.086;21.576;2023-02-01T15:57:35;5.00;99.90
45207;DHT22;30950;53.086;21.576;2023-02-01T16:02:58;4.90;99.90
45207;DHT22;30950;53.086;21.576;2023-02-01T16:05:32;4.90;99.90
45207;DHT22;30950;53.086;21.576;2023-02-01T16:10:51;4.80;99.90
45207;DHT22;30950;53.086;21.576;2023-02-01T16:13:20;4.80;99.90
45207;DHT22;30950;53.086;21.576;2023-02-01T16:15:48;4.80;99.90
45207;DHT22;30950;53.086;21.576;2023-02-01T16:18:16;5.40;99.90
45207;DHT22;30950;53.086;21.576;2023-02-01T16:20:47;4.70;99.90
45207;DHT22;30950;53.086;21.576;2023-02-01T16:23:15;4.70;99.90
45207;DHT22;30950;53.086;21.576;2023-02-01T16:25:42;4.70;99.90
45207;DHT22;30950;53.086;21.576;2023-02-01T16:28:10;4.70;99.90
45207;DHT22;30950;53.086;21.576;2023-02-01T16:30:37;4.60;99.90
45207;DHT22;30950;53.086;21.576;2023-02-01T16:33:08;4.60;99.90
45207;DHT22;30950;53.086;21.576;2023-02-01T16:35:38;4.60;99.90
45207;DHT22;30950;53.086;21.576;2023-02-01T16:38:11;4.60;99.90
45207;DHT22;30950;53.086;21.576;2023-02-01T16:40:41;4.60;99.90
45207;DHT22;30950;53.086;21.576;2023-02-01T16:43:20;4.60;99.90
45207;DHT22;30950;53.086;21.576;2023-02-01T16:45:49;4.60;99.90
45207;DHT22;30950;53.086;21.576;2023-02-01T16:48:26;4.60;99.90
45207;DHT22;30950;53.086;21.576;2023-02-01T16:50:59;4.60;99.90
45207;DHT22;30950;53.086;21.576;2023-02-01T16:53:29;4.70;99.90
45207;DHT22;30950;53.086;21.576;2023-02-01T16:58:45;4.70;99.90
45207;DHT22;30950;53.086;21.576;2023-02-01T17:01:16;4.70;99.90
45207;DHT22;30950;53.086;21.576;2023-02-01T17:03:45;4.70;99.90
45207;DHT22;30950;53.086;21.576;2023-02-01T17:06:16;4.70;99.90
45207;DHT22;30950;53.086;21.576;2023-02-01T17:08:47;4.70;99.90
45207;DHT22;30950;53.086;21.576;2023-02-01T17:11:16;4.80;99.90
45207;DHT22;30950;53.086;21.576;2023-02-01T17:13:44;4.80;99.90
45207;DHT22;30950;53.086;21.576;2023-02-01T17:19:06;4.80;99.90
45207;DHT22;30950;53.086;21.576;2023-02-01T17:21:41;4.70;99.90
45207;DHT22;30950;53.086;21.576;2023-02-01T17:24:12;4.70;99.90
45207;DHT22;30950;53.086;21.576;2023-02-01T17:26:42;4.70;99.90
45207;DHT22;30950;53.086;21.576;2023-02-01T17:29:11;4.70;99.90
45207;DHT22;30950;53.086;21.576;2023-02-01T17:31:42;4.70;99.90
45207;DHT22;30950;53.086;21.576;2023-02-01T17:34:12;4.70;99.90
45207;DHT22;30950;53.086;21.576;2023-02-01T17:36:42;4.70;99.90
45207;DHT22;30950;53.086;21.576;2023-02-01T17:39:10;4.70;99.90
45207;DHT22;30950;53.086;21.576;2023-02-01T17:41:58;4.60;99.90
45207;DHT22;30950;53.086;21.576;2023-02-01T17:44:26;4.60;99.90
45207;DHT22;30950;53.086;21.576;2023-02-01T17:46:53;4.50;99.90
45207;DHT22;30950;53.086;21.576;2023-02-01T17:49:24;4.50;99.90
45207;DHT22;30950;53.086;21.576;2023-02-01T17:51:51;4.50;99.90
45207;DHT22;30950;53.086;21.576;2023-02-01T17:54:18;4.40;99.90
45207;DHT22;30950;53.086;21.576;2023-02-01T17:56:46;4.50;99.90
45207;DHT22;30950;53.086;21.576;2023-02-01T17:59:16;4.50;99.90
45207;DHT22;30950;53.086;21.576;2023-02-01T18:01:43;4.50;99.90
45207;DHT22;30950;53.086;21.576;2023-02-01T18:04:12;4.50;99.90
45207;DHT22;30950;53.086;21.576;2023-02-01T18:06:42;4.50;99.90
45207;DHT22;30950;53.086;21.576;2023-02-01T18:09:10;4.50;99.90
45207;DHT22;30950;53.086;21.576;2023-02-01T18:11:37;4.50;99.90
45207;DHT22;30950;53.086;21.576;2023-02-01T18:14:05;4.50;99.90
45207;DHT22;30950;53.086;21.576;2023-02-01T18:16:33;4.50;99.90
45207;DHT22;30950;53.086;21.576;2023-02-01T18:19:02;4.50;99.90
45207;DHT22;30950;53.086;21.576;2023-02-01T18:21:35;4.50;99.90
45207;DHT22;30950;53.086;21.576;2023-02-01T18:24:04;4.50;99.90
45207;DHT22;30950;53.086;21.576;2023-02-01T18:26:31;4.40;99.90
45207;DHT22;30950;53.086;21.576;2023-02-01T18:28:59;4.40;99.90
45207;DHT22;30950;53.086;21.576;2023-02-01T18:31:29;4.40;99.90
45207;DHT22;30950;53.086;21.576;2023-02-01T18:33:58;4.30;99.90
45207;DHT22;30950;53.086;21.576;2023-02-01T18:36:26;4.30;99.90